Flight Track Log - Related Links

Times and Time Zones

All times are in EDT time to prevent confusion due to time zone crossing. See the AWE1056 flight status page for this flight to view local times or setup timezone preferences in your user account.

Time Position Orientation Groundspeed Altitude Reporting Facility
EDT Latitude Longitude Course Direction KTS MPH feet Rate Location/Type
Mon 04:41:54 PM 24.9989 -77.4069 24° Northeast 334 384 3,700  Level Miami Center
Mon 04:42:54 PM 25.0450 -77.3611 42° Northeast 187 215 5,400 2,420 Climbing Miami Center
Mon 04:43:00 PM 25.3761 -77.2620 24° Northeast  Level FlightAware Approximate
Mon 04:43:53 PM 25.1161 -77.3386 16° North 187 215 8,500  Level Miami Center
Mon 04:44:00 PM 25.4899 -77.1967 24° Northeast  Level FlightAware Approximate
Mon 04:44:53 PM 25.1997 -77.3389 360° North 214 246 10,800  Level Miami Center
Mon 04:45:00 PM 25.6063 -77.1367 26° Northeast  Level FlightAware Approximate
Mon 04:45:54 PM 25.2897 -77.3139 14° North 283 326 12,900  Level Miami Center
Mon 04:46:00 PM 25.7220 -77.0750 26° Northeast  Level FlightAware Approximate
Mon 04:46:53 PM 25.3817 -77.2658 25° Northeast 328 377 15,300  Level Miami Center
Mon 04:47:00 PM 25.8382 -77.0143 24° Northeast  Level FlightAware Approximate
Mon 04:47:53 PM 25.4758 -77.2178 25° Northeast 346 398 17,700  Level Miami Center
Mon 04:48:53 PM 25.5700 -77.1697 25° Northeast 364 419 19,600 2,033 Climbing Miami Center
Mon 04:49:54 PM 25.6744 -77.1469 11° North 364 419 21,800 1,900 Climbing Miami Center
Mon 04:50:53 PM 25.7831 -77.1656 351° North 371 427 23,400 1,650 Climbing Miami Center
Mon 04:51:54 PM 25.8958 -77.1892 349° North 391 450 25,100 1,600 Climbing Miami Center
Mon 04:52:53 PM 26.0150 -77.2103 351° North 405 466 26,600 1,563 Climbing Miami Center
Mon 04:53:53 PM 26.1319 -77.2361 349° North 419 482 28,200 1,289 Climbing Miami Center
Mon 04:54:54 PM 26.2531 -77.2594 350° North 431 496 29,200 1,100 Climbing Miami Center
Mon 04:55:53 PM 26.3806 -77.2831 351° North 448 516 30,400 2,900 Climbing Miami Center
Mon 04:56:54 PM 26.5036 -77.3161 346° North 453 521 35,000 1,388 Climbing Miami Center
Mon 04:57:54 PM 26.6289 -77.3375 351° North 453 521 33,200  Descending Miami Center
Mon 04:58:53 PM 26.7522 -77.3636 349° North 448 516 35,000 908 Climbing Miami Center
Mon 04:59:53 PM 26.8711 -77.3828 352° North 443 510 35,000  Level Miami Center
Mon 05:00:54 PM 26.9942 -77.4089 349° North 443 510 35,000  Level Miami Center
Mon 05:01:54 PM 27.1175 -77.4306 351° North 443 510 35,000  Level Miami Center
Mon 05:02:53 PM 27.2447 -77.4614 348° North 443 510 35,000  Level Miami Center
Mon 05:03:53 PM 27.3367 -77.4642 358° North 443 510 35,000  Level Miami Center
Mon 05:04:53 PM 27.4700 -77.5211 339° North 450 518 35,000  Level Miami Center
Mon 05:05:54 PM 27.5869 -77.5594 344° North 438 504 35,000 -50 Level Miami Center
Mon 05:06:53 PM 27.6994 -77.5928 345° North 430 495 34,900  Descending Miami Center
Mon 05:07:53 PM 27.8267 -77.6314 345° North 430 495 35,000 50 Climbing Miami Center
Mon 05:08:53 PM 27.9433 -77.6697 344° North 430 495 35,000  Level Miami Center
Mon 05:09:53 PM 28.0600 -77.7106 343° North 437 503 35,000  Level Miami Center
Mon 05:10:54 PM 28.1808 -77.7514 343° North 437 503 35,000  Level Miami Center
Mon 05:11:54 PM 28.2956 -77.7900 343° North 436 502 35,000  Level Miami Center
Mon 05:12:53 PM 28.4433 -77.8339 345° North 436 502 35,000  Level Miami Center
Mon 05:13:53 PM 28.5369 -77.8725 340° North 429 494 35,000  Level Miami Center
Mon 05:14:53 PM 28.6536 -77.9114 344° North 441 507 35,000  Level Miami Center
Mon 05:15:54 PM 28.7722 -77.9528 343° North 446 513 35,000  Level Miami Center
Mon 05:16:53 PM 28.8908 -77.9942 343° North 441 507 35,000  Level Miami Center
Mon 05:17:53 PM 29.0075 -78.0333 344° North 436 502 35,000  Level Miami Center
Mon 05:18:54 PM 29.1219 -78.0725 343° North 436 502 35,000  Level Miami Center
Mon 05:19:53 PM 29.2425 -78.1144 343° North 436 502 35,000  Level Miami Center
Mon 05:20:53 PM 29.3797 -78.1636 343° North 441 507 35,000  Level Miami Center
Mon 05:21:53 PM 29.4881 -78.1983 344° North 437 503 35,000  Level Miami Center
Mon 05:22:53 PM 29.5939 -78.2378 342° North 442 509 35,000  Level Miami Center
Mon 05:26:00 PM 29.9603 -78.3500 345° North 426 490 35,000  Level Jacksonville Center
Mon 05:27:00 PM 30.0964 -78.3675 354° North 440 506 35,000  Level Jacksonville Center
Mon 05:28:00 PM 30.2133 -78.3669 360° North 445 512 35,000  Level Jacksonville Center
Mon 05:29:00 PM 30.3386 -78.3706 359° North 448 516 35,000  Level Jacksonville Center
Mon 05:30:00 PM 30.4639 -78.3717 360° North 448 516 35,000  Level Jacksonville Center
Mon 05:31:00 PM 30.5914 -78.3778 358° North 442 509 35,000  Level Jacksonville Center
Mon 05:32:00 PM 30.7167 -78.3792 359° North 442 509 35,000  Level Jacksonville Center
Mon 05:33:00 PM 30.8358 -78.3806 359° North 442 509 35,000  Level Jacksonville Center
Mon 05:34:00 PM 30.9550 -78.3822 359° North 442 509 35,000  Level Jacksonville Center
Mon 05:35:00 PM 31.0906 -78.3831 360° North 447 514 35,000  Level Jacksonville Center
Mon 05:36:00 PM 31.2078 -78.3919 356° North 442 509 35,000  Level Jacksonville Center
Mon 05:37:00 PM 31.3372 -78.3906 North 442 509 35,000  Level Jacksonville Center
Mon 05:38:00 PM 31.4583 -78.3969 357° North 442 509 35,000  Level Jacksonville Center
Mon 05:39:00 PM 31.5858 -78.4006 359° North 442 509 35,000  Level Jacksonville Center
Mon 05:40:00 PM 31.7111 -78.4019 359° North 447 514 35,000  Level Jacksonville Center
Mon 05:41:00 PM 31.8367 -78.4081 358° North 447 514 35,000  Level Jacksonville Center
Mon 05:42:00 PM 31.9619 -78.4092 360° North 447 514 35,000  Level Jacksonville Center
Mon 05:43:00 PM 32.0914 -78.4103 360° North 447 514 35,000  Level Jacksonville Center
Mon 05:44:00 PM 32.2128 -78.4167 357° North 447 514 35,000 -150 Level Jacksonville Center
Mon 05:45:00 PM 32.3525 -78.4194 359° North 448 516 34,700 -650 Descending Jacksonville Center
Mon 05:46:00 PM 32.4536 -78.5031 325° Northwest 426 490 33,700 -950 Descending Jacksonville Center
Mon 05:47:00 PM 32.5017 -78.6217 296° West 411 473 32,800 -950 Descending Jacksonville Center
Mon 05:48:00 PM 32.5356 -78.7628 286° West 416 479 31,800 -900 Descending Jacksonville Center
Mon 05:49:00 PM 32.5775 -78.8989 290° West 426 490 31,000 -400 Descending Jacksonville Center
Mon 05:50:00 PM 32.6172 -79.0353 289° West 436 502 31,000  Level Jacksonville Center
Mon 05:51:00 PM 32.6567 -79.1742 289° West 441 507 31,000 -450 Level Jacksonville Center
Mon 05:52:00 PM 32.6942 -79.3083 288° West 435 501 30,100 -950 Descending Jacksonville Center
Mon 05:53:00 PM 32.7311 -79.4453 288° West 435 501 29,100 -1,000 Descending Jacksonville Center
Mon 05:54:00 PM 32.7703 -79.5822 289° West 435 501 28,100 -1,000 Descending Jacksonville Center
Mon 05:55:00 PM 32.8072 -79.7167 288° West 435 501 27,100 -1,000 Descending Jacksonville Center
Mon 05:56:00 PM 32.8439 -79.8514 288° West 435 501 26,100 -1,000 Descending Jacksonville Center
Mon 05:57:00 PM 32.8908 -79.9783 294° West 435 501 25,100 -1,000 Descending Jacksonville Center
Mon 05:58:00 PM 32.9983 -80.0244 340° North 394 453 24,100 -950 Descending Jacksonville Center
Mon 05:59:00 PM 33.1192 -80.0206 North 364 419 23,200 -950 Descending Jacksonville Center
Mon 06:00:00 PM 33.2344 -80.0442 350° North 395 455 22,200 -1,000 Descending Jacksonville Center
Mon 06:01:00 PM 33.3458 -80.0681 350° North 406 467 21,200 -1,100 Descending Jacksonville Center
Mon 06:02:00 PM 33.4672 -80.0939 350° North 406 467 20,000 -600 Descending Jacksonville Center
Mon 06:03:00 PM 33.5806 -80.1153 351° North 412 474 20,000  Level Jacksonville Center
Mon 06:04:00 PM 33.6894 -80.1369 351° North 407 468 20,000  Level Jacksonville Center
Mon 06:05:00 PM 33.8006 -80.1583 351° North 402 463 20,000  Level Jacksonville Center
Mon 06:06:00 PM 33.9075 -80.1800 350° North 397 457 20,000 -1,100 Level Jacksonville Center
Mon 06:07:00 PM 34.0142 -80.2019 350° North 391 450 17,800 -1,550 Descending Jacksonville Center
Mon 06:08:00 PM 34.1211 -80.2211 352° North 391 450 16,900 -1,750 Descending Jacksonville Center
Mon 06:09:00 PM 34.2258 -80.2431 350° North 391 450 14,300 -2,700 Descending Jacksonville Center
Mon 06:10:00 PM 34.3328 -80.2700 348° North 391 450 11,500 -1,700 Descending Jacksonville Center
Mon 06:11:00 PM 34.4353 -80.2869 352° North 391 450 10,900 -158 Descending Jacksonville Center
Mon 06:13:10 PM 34.6544 -80.3319 350° North 353 406 11,000 30 Climbing Atlanta Center
Mon 06:14:23 PM 34.7397 -80.3914 330° Northwest 282 325 11,000  Level Atlanta Center
Mon 06:15:24 PM 34.7981 -80.4622 315° West 291 335 11,000  Level Atlanta Center
Mon 06:16:19 PM 34.8522 -80.5256 316° Northwest 295 339 11,000  Level Atlanta Center
Mon 06:17:19 PM 34.9064 -80.5967 313° West 292 336 11,000 -52 Level Atlanta Center
Mon 06:18:14 PM 34.9603 -80.6631 315° West 289 333 10,900 -517 Descending Atlanta Center
Mon 06:19:15 PM 35.0144 -80.7344 313° West 288 331 10,000 -656 Descending Atlanta Center
Mon 06:20:22 PM 35.0811 -80.8103 317° Northwest 288 331 9,500 -516 Descending Atlanta Center
Mon 06:21:23 PM 35.1586 -80.8200 354° North 275 316 8,900 -844 Descending Atlanta Center
Mon 06:22:30 PM 35.2203 -80.7872 23° Northeast 246 283 7,700 -1,513 Descending Atlanta Center
Mon 06:23:18 PM 35.2606 -80.7322 48° Northeast 243 280 6,000 -2,125 Descending Atlanta Center

Login

Don't have an account? Register now (free) for customized features, flight alerts, and more!